This is the latest recevied weather packets stored in our database for station/object IK2YOU-3. If no packets are shown the sender has not sent any weather packets the latest 10 day(s).
| Time | Temp. | Humidity | Pressure | Rain* | Wind** | Luminosity | Snow |
|---|---|---|---|---|---|---|---|
| 1777787632 | 15.56° C | 66% | 1016.9 hPa | 0 mm | - | 73 W/m² | - |
| 1777787033 | 15.56° C | 66% | 1016.9 hPa | 0 mm | - | 71 W/m² | - |
| 1777786562 | 15° C | 68% | 1016.8 hPa | 0 mm | - | 98 W/m² | - |
| 1777785832 | 14.44° C | 72% | 1016.7 hPa | 0 mm | - | 81 W/m² | - |
| 1777785363 | 13.89° C | 74% | 1016.7 hPa | 0 mm | - | 62 W/m² | - |
| 1777784632 | 13.33° C | 77% | 1016.7 hPa | 0 mm | - | 50 W/m² | - |
| 1777784032 | 12.78° C | 77% | 1016.7 hPa | 0 mm | - | 39 W/m² | - |
| 1777783432 | 12.22° C | 78% | 1016.8 hPa | 0 mm | - | 28 W/m² | - |
| 1777782832 | 12.22° C | 77% | 1016.7 hPa | 0 mm | - | 19 W/m² | - |
| 1777782232 | 12.22° C | 77% | 1016.8 hPa | 0 mm | - | 7 W/m² | - |
| 1777781632 | 12.22° C | 78% | 1016.7 hPa | 0 mm | - | 2 W/m² | - |
| 1777781030 | 12.22° C | 78% | 1016.7 hPa | 0 mm | - | 0 W/m² | - |
| 1777780556 | 12.22° C | 77% | 1016.6 hPa | 0 mm | - | 0 W/m² | - |
| 1777779827 | 12.22° C | 77% | 1016.6 hPa | 0 mm | - | 0 W/m² | - |
| 1777779224 | 12.22° C | 77% | 1016.8 hPa | 0 mm | - | 0 W/m² | - |
| 1777778638 | 11.67° C | 77% | 1016.7 hPa | 0 mm | - | 0 W/m² | - |
| 1777778024 | 12.22° C | 77% | 1016.7 hPa | 0 mm | - | 0 W/m² | - |
| 1777777550 | 12.22° C | 76% | 1016.6 hPa | 0 mm | - | 0 W/m² | - |
| 1777776821 | 12.22° C | 76% | 1016.7 hPa | 0 mm | - | 0 W/m² | - |
| 1777776347 | 12.22° C | 76% | 1016.8 hPa | 0 mm | - | 0 W/m² | - |
| 1777775748 | 12.78° C | 75% | 1016.9 hPa | 0 mm | - | 0 W/m² | - |
| 1777775149 | 12.78° C | 75% | 1017 hPa | 0 mm | - | 0 W/m² | - |
| 1777774424 | 12.78° C | 75% | 1017 hPa | 0 mm | - | 0 W/m² | - |
| 1777773818 | 12.78° C | 75% | 1016.9 hPa | 0 mm | - | 0 W/m² | - |
| 1777773347 | 13.33° C | 74% | 1016.9 hPa | 0 mm | - | 0 W/m² | - |
* Rain latest hour (hover to see other rain measurements)
** Current wind speed in m/s (hover to see current wind gust speed)